sensor_id;sensor_type;location;lat;lon;timestamp;temperature;humidity
24087;DHT22;22893;50.572;7.234;2023-03-11T00:00:44;21.60;50.00
24087;DHT22;22893;50.572;7.234;2023-03-11T00:03:14;21.60;50.50
24087;DHT22;22893;50.572;7.234;2023-03-11T00:05:43;21.60;50.50
24087;DHT22;22893;50.572;7.234;2023-03-11T00:08:14;21.60;50.50
24087;DHT22;22893;50.572;7.234;2023-03-11T00:10:43;21.60;50.50
24087;DHT22;22893;50.572;7.234;2023-03-11T00:13:13;21.50;51.80
24087;DHT22;22893;50.572;7.234;2023-03-11T00:15:43;21.30;50.80
24087;DHT22;22893;50.572;7.234;2023-03-11T00:18:11;21.20;50.30
24087;DHT22;22893;50.572;7.234;2023-03-11T00:20:41;21.10;50.20
24087;DHT22;22893;50.572;7.234;2023-03-11T00:23:11;21.00;49.80
24087;DHT22;22893;50.572;7.234;2023-03-11T00:25:39;20.90;49.60
24087;DHT22;22893;50.572;7.234;2023-03-11T00:28:07;20.80;49.60
24087;DHT22;22893;50.572;7.234;2023-03-11T00:30:37;20.80;49.60
24087;DHT22;22893;50.572;7.234;2023-03-11T00:33:05;20.90;50.70
24087;DHT22;22893;50.572;7.234;2023-03-11T00:35:34;21.00;50.70
24087;DHT22;22893;50.572;7.234;2023-03-11T00:38:05;21.10;50.70
24087;DHT22;22893;50.572;7.234;2023-03-11T00:40:34;21.10;50.60
24087;DHT22;22893;50.572;7.234;2023-03-11T00:43:03;21.10;50.20
24087;DHT22;22893;50.572;7.234;2023-03-11T00:45:31;21.20;50.30
24087;DHT22;22893;50.572;7.234;2023-03-11T00:47:59;21.20;50.30
24087;DHT22;22893;50.572;7.234;2023-03-11T00:50:30;21.20;50.00
24087;DHT22;22893;50.572;7.234;2023-03-11T00:52:57;21.20;50.00
24087;DHT22;22893;50.572;7.234;2023-03-11T00:55:28;21.20;49.90
24087;DHT22;22893;50.572;7.234;2023-03-11T00:58:01;21.20;49.70
24087;DHT22;22893;50.572;7.234;2023-03-11T01:00:30;21.20;49.80
24087;DHT22;22893;50.572;7.234;2023-03-11T01:02:58;21.20;49.80
24087;DHT22;22893;50.572;7.234;2023-03-11T01:05:28;21.20;49.90
24087;DHT22;22893;50.572;7.234;2023-03-11T01:07:56;21.20;49.80
24087;DHT22;22893;50.572;7.234;2023-03-11T01:10:24;21.20;50.50
24087;DHT22;22893;50.572;7.234;2023-03-11T01:12:52;21.20;49.50
24087;DHT22;22893;50.572;7.234;2023-03-11T01:15:29;21.20;49.60
24087;DHT22;22893;50.572;7.234;2023-03-11T01:17:56;21.20;49.60
24087;DHT22;22893;50.572;7.234;2023-03-11T01:20:24;21.20;49.50
24087;DHT22;22893;50.572;7.234;2023-03-11T01:22:52;21.20;49.30
24087;DHT22;22893;50.572;7.234;2023-03-11T01:25:22;21.20;49.10
24087;DHT22;22893;50.572;7.234;2023-03-11T01:27:50;21.20;49.30
24087;DHT22;22893;50.572;7.234;2023-03-11T01:30:20;21.20;49.20
24087;DHT22;22893;50.572;7.234;2023-03-11T01:32:48;21.20;49.20
24087;DHT22;22893;50.572;7.234;2023-03-11T01:35:18;21.20;49.20
24087;DHT22;22893;50.572;7.234;2023-03-11T01:37:46;21.20;49.10
24087;DHT22;22893;50.572;7.234;2023-03-11T01:40:25;21.20;49.20
24087;DHT22;22893;50.572;7.234;2023-03-11T01:42:44;21.20;49.40
24087;DHT22;22893;50.572;7.234;2023-03-11T01:47:59;21.10;50.00
24087;DHT22;22893;50.572;7.234;2023-03-11T01:50:29;21.10;49.10
24087;DHT22;22893;50.572;7.234;2023-03-11T01:52:57;21.10;49.40
24087;DHT22;22893;50.572;7.234;2023-03-11T01:55:24;21.20;49.50
24087;DHT22;22893;50.572;7.234;2023-03-11T01:57:53;21.10;48.90
24087;DHT22;22893;50.572;7.234;2023-03-11T02:00:21;21.10;49.20
24087;DHT22;22893;50.572;7.234;2023-03-11T02:02:51;21.10;49.10
24087;DHT22;22893;50.572;7.234;2023-03-11T02:05:21;21.10;49.30
24087;DHT22;22893;50.572;7.234;2023-03-11T02:07:50;21.10;49.30
24087;DHT22;22893;50.572;7.234;2023-03-11T02:10:19;21.10;48.90
24087;DHT22;22893;50.572;7.234;2023-03-11T02:12:48;21.10;49.00
24087;DHT22;22893;50.572;7.234;2023-03-11T02:15:16;21.10;49.30
24087;DHT22;22893;50.572;7.234;2023-03-11T02:17:44;21.10;48.90
24087;DHT22;22893;50.572;7.234;2023-03-11T02:23:06;21.10;48.40
24087;DHT22;22893;50.572;7.234;2023-03-11T02:28:11;21.00;48.40
24087;DHT22;22893;50.572;7.234;2023-03-11T02:30:41;21.00;48.30
24087;DHT22;22893;50.572;7.234;2023-03-11T02:33:10;21.00;48.40
24087;DHT22;22893;50.572;7.234;2023-03-11T02:35:38;21.00;48.40
24087;DHT22;22893;50.572;7.234;2023-03-11T02:38:06;21.00;48.00
24087;DHT22;22893;50.572;7.234;2023-03-11T02:40:49;21.00;48.30
24087;DHT22;22893;50.572;7.234;2023-03-11T02:43:21;21.00;48.10
24087;DHT22;22893;50.572;7.234;2023-03-11T02:45:48;21.00;48.40
24087;DHT22;22893;50.572;7.234;2023-03-11T02:48:16;21.00;48.00
24087;DHT22;22893;50.572;7.234;2023-03-11T02:50:45;21.00;48.00
24087;DHT22;22893;50.572;7.234;2023-03-11T02:53:13;21.00;48.10
24087;DHT22;22893;50.572;7.234;2023-03-11T02:55:41;20.90;48.20
24087;DHT22;22893;50.572;7.234;2023-03-11T02:58:08;21.00;47.90
24087;DHT22;22893;50.572;7.234;2023-03-11T03:00:36;20.90;48.10
24087;DHT22;22893;50.572;7.234;2023-03-11T03:03:03;20.90;47.90
24087;DHT22;22893;50.572;7.234;2023-03-11T03:05:31;20.90;48.00
24087;DHT22;22893;50.572;7.234;2023-03-11T03:07:59;20.90;47.90
24087;DHT22;22893;50.572;7.234;2023-03-11T03:10:28;20.90;47.80
24087;DHT22;22893;50.572;7.234;2023-03-11T03:12:56;20.90;48.10
24087;DHT22;22893;50.572;7.234;2023-03-11T03:15:23;20.90;47.90
24087;DHT22;22893;50.572;7.234;2023-03-11T03:17:51;20.90;47.90
24087;DHT22;22893;50.572;7.234;2023-03-11T03:20:19;20.80;47.70
24087;DHT22;22893;50.572;7.234;2023-03-11T03:22:48;20.80;48.00
24087;DHT22;22893;50.572;7.234;2023-03-11T03:25:16;20.70;48.00
24087;DHT22;22893;50.572;7.234;2023-03-11T03:27:44;20.80;47.90
24087;DHT22;22893;50.572;7.234;2023-03-11T03:30:11;20.80;48.10
24087;DHT22;22893;50.572;7.234;2023-03-11T03:32:39;20.80;48.00
24087;DHT22;22893;50.572;7.234;2023-03-11T03:35:07;20.80;47.80
24087;DHT22;22893;50.572;7.234;2023-03-11T03:37:36;20.80;47.60
24087;DHT22;22893;50.572;7.234;2023-03-11T03:40:05;20.80;47.50
24087;DHT22;22893;50.572;7.234;2023-03-11T03:42:36;20.80;47.40
24087;DHT22;22893;50.572;7.234;2023-03-11T03:47:52;20.80;47.40
24087;DHT22;22893;50.572;7.234;2023-03-11T03:50:20;20.80;47.60
24087;DHT22;22893;50.572;7.234;2023-03-11T03:52:48;20.80;47.40
24087;DHT22;22893;50.572;7.234;2023-03-11T03:55:15;20.80;47.40
24087;DHT22;22893;50.572;7.234;2023-03-11T03:57:43;20.90;47.10
24087;DHT22;22893;50.572;7.234;2023-03-11T04:00:14;20.80;47.00
24087;DHT22;22893;50.572;7.234;2023-03-11T04:02:42;20.80;47.00
24087;DHT22;22893;50.572;7.234;2023-03-11T04:05:09;20.80;47.40
24087;DHT22;22893;50.572;7.234;2023-03-11T04:07:37;20.80;47.00
24087;DHT22;22893;50.572;7.234;2023-03-11T04:10:06;20.80;47.10
24087;DHT22;22893;50.572;7.234;2023-03-11T04:12:36;20.80;46.90
24087;DHT22;22893;50.572;7.234;2023-03-11T04:17:52;20.80;47.00
24087;DHT22;22893;50.572;7.234;2023-03-11T04:20:20;20.80;46.70
24087;DHT22;22893;50.572;7.234;2023-03-11T04:22:48;20.80;47.00
24087;DHT22;22893;50.572;7.234;2023-03-11T04:25:16;20.80;46.70
24087;DHT22;22893;50.572;7.234;2023-03-11T04:30:32;20.80;46.70
24087;DHT22;22893;50.572;7.234;2023-03-11T04:32:59;20.80;46.90
24087;DHT22;22893;50.572;7.234;2023-03-11T04:35:27;20.80;46.70
24087;DHT22;22893;50.572;7.234;2023-03-11T04:37:54;20.80;46.60
24087;DHT22;22893;50.572;7.234;2023-03-11T04:40:22;20.80;46.40
24087;DHT22;22893;50.572;7.234;2023-03-11T04:42:49;20.80;46.60
24087;DHT22;22893;50.572;7.234;2023-03-11T04:45:17;20.80;46.50
24087;DHT22;22893;50.572;7.234;2023-03-11T04:47:46;20.80;46.40
24087;DHT22;22893;50.572;7.234;2023-03-11T04:50:15;20.80;46.50
24087;DHT22;22893;50.572;7.234;2023-03-11T04:52:43;20.80;46.60
24087;DHT22;22893;50.572;7.234;2023-03-11T04:55:11;20.80;46.40
24087;DHT22;22893;50.572;7.234;2023-03-11T04:57:41;20.80;46.40
24087;DHT22;22893;50.572;7.234;2023-03-11T05:00:10;20.80;46.60
24087;DHT22;22893;50.572;7.234;2023-03-11T05:02:39;20.70;44.20
24087;DHT22;22893;50.572;7.234;2023-03-11T05:05:08;20.60;46.00
24087;DHT22;22893;50.572;7.234;2023-03-11T05:07:36;20.70;46.50
24087;DHT22;22893;50.572;7.234;2023-03-11T05:10:04;20.70;46.70
24087;DHT22;22893;50.572;7.234;2023-03-11T05:12:32;20.60;47.20
24087;DHT22;22893;50.572;7.234;2023-03-11T05:15:00;20.70;47.20
24087;DHT22;22893;50.572;7.234;2023-03-11T05:17:27;20.70;46.90
24087;DHT22;22893;50.572;7.234;2023-03-11T05:19:55;20.70;46.90
24087;DHT22;22893;50.572;7.234;2023-03-11T05:22:23;20.70;46.80
24087;DHT22;22893;50.572;7.234;2023-03-11T05:24:51;20.70;47.00
24087;DHT22;22893;50.572;7.234;2023-03-11T05:27:18;20.70;47.50
24087;DHT22;22893;50.572;7.234;2023-03-11T05:29:46;20.70;46.80
24087;DHT22;22893;50.572;7.234;2023-03-11T05:32:14;20.70;46.70
24087;DHT22;22893;50.572;7.234;2023-03-11T05:34:42;20.70;46.60
24087;DHT22;22893;50.572;7.234;2023-03-11T05:37:09;20.70;46.60
24087;DHT22;22893;50.572;7.234;2023-03-11T05:39:37;20.80;46.60
24087;DHT22;22893;50.572;7.234;2023-03-11T05:42:05;20.70;46.50
24087;DHT22;22893;50.572;7.234;2023-03-11T05:44:33;20.70;46.40
24087;DHT22;22893;50.572;7.234;2023-03-11T05:47:01;20.70;46.60
24087;DHT22;22893;50.572;7.234;2023-03-11T05:49:28;20.70;46.50
24087;DHT22;22893;50.572;7.234;2023-03-11T05:51:56;20.70;46.80
24087;DHT22;22893;50.572;7.234;2023-03-11T05:54:24;20.70;46.60
24087;DHT22;22893;50.572;7.234;2023-03-11T05:56:51;20.70;46.50
24087;DHT22;22893;50.572;7.234;2023-03-11T05:59:19;20.70;46.50
24087;DHT22;22893;50.572;7.234;2023-03-11T06:01:46;20.70;46.40
24087;DHT22;22893;50.572;7.234;2023-03-11T06:04:14;20.70;46.30
24087;DHT22;22893;50.572;7.234;2023-03-11T06:06:41;20.70;46.50
24087;DHT22;22893;50.572;7.234;2023-03-11T06:09:13;20.70;46.40
24087;DHT22;22893;50.572;7.234;2023-03-11T06:11:41;20.70;46.60
24087;DHT22;22893;50.572;7.234;2023-03-11T06:14:13;20.70;46.30
24087;DHT22;22893;50.572;7.234;2023-03-11T06:16:41;20.60;46.20
24087;DHT22;22893;50.572;7.234;2023-03-11T06:19:09;20.70;46.20
24087;DHT22;22893;50.572;7.234;2023-03-11T06:21:37;20.60;46.10
24087;DHT22;22893;50.572;7.234;2023-03-11T06:24:05;20.70;47.00
24087;DHT22;22893;50.572;7.234;2023-03-11T06:26:33;20.60;46.20
24087;DHT22;22893;50.572;7.234;2023-03-11T06:29:00;20.70;46.10
24087;DHT22;22893;50.572;7.234;2023-03-11T06:31:29;20.70;46.20
24087;DHT22;22893;50.572;7.234;2023-03-11T06:33:57;20.70;46.10
24087;DHT22;22893;50.572;7.234;2023-03-11T06:36:25;20.70;46.30
24087;DHT22;22893;50.572;7.234;2023-03-11T06:38:53;20.70;46.10
24087;DHT22;22893;50.572;7.234;2023-03-11T06:41:21;20.70;46.20
24087;DHT22;22893;50.572;7.234;2023-03-11T06:43:49;20.70;46.10
24087;DHT22;22893;50.572;7.234;2023-03-11T06:46:19;20.60;46.40
24087;DHT22;22893;50.572;7.234;2023-03-11T06:48:47;20.60;46.30
24087;DHT22;22893;50.572;7.234;2023-03-11T06:51:19;20.70;46.50
24087;DHT22;22893;50.572;7.234;2023-03-11T06:53:51;20.70;46.60
24087;DHT22;22893;50.572;7.234;2023-03-11T06:56:20;20.70;46.80
24087;DHT22;22893;50.572;7.234;2023-03-11T06:58:48;20.60;46.60
24087;DHT22;22893;50.572;7.234;2023-03-11T07:01:22;20.60;46.50
24087;DHT22;22893;50.572;7.234;2023-03-11T07:03:50;20.60;46.70
24087;DHT22;22893;50.572;7.234;2023-03-11T07:06:20;20.60;47.00
24087;DHT22;22893;50.572;7.234;2023-03-11T07:08:50;20.60;46.90
24087;DHT22;22893;50.572;7.234;2023-03-11T07:11:26;20.60;46.40
24087;DHT22;22893;50.572;7.234;2023-03-11T07:13:54;20.70;47.50
24087;DHT22;22893;50.572;7.234;2023-03-11T07:16:25;20.60;45.30
24087;DHT22;22893;50.572;7.234;2023-03-11T07:18:55;20.50;47.10
24087;DHT22;22893;50.572;7.234;2023-03-11T07:21:25;20.50;46.70
24087;DHT22;22893;50.572;7.234;2023-03-11T07:23:58;20.50;46.00
24087;DHT22;22893;50.572;7.234;2023-03-11T07:26:27;20.30;45.30
24087;DHT22;22893;50.572;7.234;2023-03-11T07:28:56;20.00;45.30
24087;DHT22;22893;50.572;7.234;2023-03-11T07:31:27;19.90;44.90
24087;DHT22;22893;50.572;7.234;2023-03-11T07:33:57;19.90;45.10
24087;DHT22;22893;50.572;7.234;2023-03-11T07:36:25;19.80;45.20
24087;DHT22;22893;50.572;7.234;2023-03-11T07:38:55;19.90;45.60
24087;DHT22;22893;50.572;7.234;2023-03-11T07:41:31;19.80;45.30
24087;DHT22;22893;50.572;7.234;2023-03-11T07:44:00;19.70;45.10
24087;DHT22;22893;50.572;7.234;2023-03-11T07:46:29;19.70;45.40
24087;DHT22;22893;50.572;7.234;2023-03-11T07:48:57;19.60;45.50
24087;DHT22;22893;50.572;7.234;2023-03-11T07:51:27;19.60;45.50
24087;DHT22;22893;50.572;7.234;2023-03-11T07:53:56;19.50;45.60
24087;DHT22;22893;50.572;7.234;2023-03-11T07:56:26;19.50;45.80
24087;DHT22;22893;50.572;7.234;2023-03-11T07:58:54;19.50;46.40
24087;DHT22;22893;50.572;7.234;2023-03-11T08:01:24;19.50;45.80
24087;DHT22;22893;50.572;7.234;2023-03-11T08:03:53;19.50;45.90
24087;DHT22;22893;50.572;7.234;2023-03-11T08:06:25;19.50;45.90
24087;DHT22;22893;50.572;7.234;2023-03-11T08:08:53;19.40;46.10
24087;DHT22;22893;50.572;7.234;2023-03-11T08:11:20;19.40;46.10
24087;DHT22;22893;50.572;7.234;2023-03-11T08:13:49;19.40;46.30
24087;DHT22;22893;50.572;7.234;2023-03-11T08:16:19;19.50;48.00
24087;DHT22;22893;50.572;7.234;2023-03-11T08:18:48;19.60;47.90
24087;DHT22;22893;50.572;7.234;2023-03-11T08:21:19;19.80;48.50
24087;DHT22;22893;50.572;7.234;2023-03-11T08:23:48;19.90;48.60
24087;DHT22;22893;50.572;7.234;2023-03-11T08:26:18;20.00;48.60
24087;DHT22;22893;50.572;7.234;2023-03-11T08:28:47;20.00;48.80
24087;DHT22;22893;50.572;7.234;2023-03-11T08:31:24;20.10;48.90
24087;DHT22;22893;50.572;7.234;2023-03-11T08:33:55;20.20;49.00
24087;DHT22;22893;50.572;7.234;2023-03-11T08:36:22;20.20;49.00
24087;DHT22;22893;50.572;7.234;2023-03-11T08:38:49;20.20;49.00
24087;DHT22;22893;50.572;7.234;2023-03-11T08:41:17;20.30;49.10
24087;DHT22;22893;50.572;7.234;2023-03-11T08:43:45;20.30;49.20
24087;DHT22;22893;50.572;7.234;2023-03-11T08:46:25;20.40;49.20
24087;DHT22;22893;50.572;7.234;2023-03-11T08:48:53;20.40;49.20
24087;DHT22;22893;50.572;7.234;2023-03-11T08:51:22;20.40;49.20
24087;DHT22;22893;50.572;7.234;2023-03-11T08:53:51;20.40;49.20
24087;DHT22;22893;50.572;7.234;2023-03-11T08:56:18;20.40;49.20
24087;DHT22;22893;50.572;7.234;2023-03-11T08:58:46;20.40;49.00
24087;DHT22;22893;50.572;7.234;2023-03-11T09:01:14;20.50;49.00
24087;DHT22;22893;50.572;7.234;2023-03-11T09:03:42;20.50;48.90
24087;DHT22;22893;50.572;7.234;2023-03-11T09:06:12;20.50;48.90
24087;DHT22;22893;50.572;7.234;2023-03-11T09:08:41;20.50;48.80
24087;DHT22;22893;50.572;7.234;2023-03-11T09:11:09;20.50;48.90
24087;DHT22;22893;50.572;7.234;2023-03-11T09:13:40;20.60;48.90
24087;DHT22;22893;50.572;7.234;2023-03-11T09:16:13;20.60;49.00
24087;DHT22;22893;50.572;7.234;2023-03-11T09:18:41;20.60;49.00
24087;DHT22;22893;50.572;7.234;2023-03-11T09:21:09;20.60;49.10
24087;DHT22;22893;50.572;7.234;2023-03-11T09:23:37;20.60;49.00
24087;DHT22;22893;50.572;7.234;2023-03-11T09:26:05;20.60;49.00
24087;DHT22;22893;50.572;7.234;2023-03-11T09:28:32;20.60;49.00
24087;DHT22;22893;50.572;7.234;2023-03-11T09:31:00;20.60;48.80
24087;DHT22;22893;50.572;7.234;2023-03-11T09:33:27;20.60;48.60
24087;DHT22;22893;50.572;7.234;2023-03-11T09:35:57;20.70;48.50
24087;DHT22;22893;50.572;7.234;2023-03-11T09:38:24;20.70;48.30
24087;DHT22;22893;50.572;7.234;2023-03-11T09:41:07;20.70;49.00
24087;DHT22;22893;50.572;7.234;2023-03-11T09:43:34;20.60;48.00
24087;DHT22;22893;50.572;7.234;2023-03-11T09:46:21;20.60;48.30
24087;DHT22;22893;50.572;7.234;2023-03-11T09:48:43;20.60;48.00
24087;DHT22;22893;50.572;7.234;2023-03-11T09:51:21;20.60;48.30
24087;DHT22;22893;50.572;7.234;2023-03-11T09:53:52;20.70;48.40
24087;DHT22;22893;50.572;7.234;2023-03-11T09:56:21;20.70;48.30
24087;DHT22;22893;50.572;7.234;2023-03-11T09:58:55;20.70;48.30
24087;DHT22;22893;50.572;7.234;2023-03-11T10:01:25;20.70;48.10
24087;DHT22;22893;50.572;7.234;2023-03-11T10:04:09;20.70;48.00
24087;DHT22;22893;50.572;7.234;2023-03-11T10:06:33;20.70;48.00
24087;DHT22;22893;50.572;7.234;2023-03-11T10:12:09;20.70;47.90
24087;DHT22;22893;50.572;7.234;2023-03-11T10:14:57;20.70;48.00
24087;DHT22;22893;50.572;7.234;2023-03-11T10:17:47;20.80;47.90
24087;DHT22;22893;50.572;7.234;2023-03-11T10:20:24;20.80;48.10
24087;DHT22;22893;50.572;7.234;2023-03-11T10:23:55;20.80;48.10
24087;DHT22;22893;50.572;7.234;2023-03-11T10:28:14;20.80;48.80
24087;DHT22;22893;50.572;7.234;2023-03-11T10:31:07;20.80;48.00
24087;DHT22;22893;50.572;7.234;2023-03-11T10:34:10;20.80;48.10
24087;DHT22;22893;50.572;7.234;2023-03-11T10:36:01;20.80;48.10
24087;DHT22;22893;50.572;7.234;2023-03-11T10:38:38;20.80;48.00
24087;DHT22;22893;50.572;7.234;2023-03-11T10:41:11;20.80;47.60
24087;DHT22;22893;50.572;7.234;2023-03-11T10:43:37;20.80;48.30
24087;DHT22;22893;50.572;7.234;2023-03-11T10:46:19;20.90;48.30
24087;DHT22;22893;50.572;7.234;2023-03-11T10:48:42;20.80;48.40
24087;DHT22;22893;50.572;7.234;2023-03-11T10:51:18;20.90;48.50
24087;DHT22;22893;50.572;7.234;2023-03-11T10:56:35;20.90;48.70
24087;DHT22;22893;50.572;7.234;2023-03-11T10:59:17;20.90;48.70
24087;DHT22;22893;50.572;7.234;2023-03-11T11:01:34;20.90;48.80
24087;DHT22;22893;50.572;7.234;2023-03-11T11:04:02;20.90;48.90
24087;DHT22;22893;50.572;7.234;2023-03-11T11:06:32;21.00;48.90
24087;DHT22;22893;50.572;7.234;2023-03-11T11:09:05;21.00;48.50
24087;DHT22;22893;50.572;7.234;2023-03-11T11:11:34;21.00;48.90
24087;DHT22;22893;50.572;7.234;2023-03-11T11:14:02;21.00;48.80
24087;DHT22;22893;50.572;7.234;2023-03-11T11:16:29;21.00;48.80
24087;DHT22;22893;50.572;7.234;2023-03-11T11:21:40;21.00;48.80
24087;DHT22;22893;50.572;7.234;2023-03-11T11:24:26;21.00;48.80
24087;DHT22;22893;50.572;7.234;2023-03-11T11:29:39;21.00;48.90
24087;DHT22;22893;50.572;7.234;2023-03-11T11:35:05;21.00;49.20
24087;DHT22;22893;50.572;7.234;2023-03-11T11:37:35;21.10;49.20
24087;DHT22;22893;50.572;7.234;2023-03-11T11:40:23;21.10;49.30
24087;DHT22;22893;50.572;7.234;2023-03-11T11:42:55;21.10;49.30
24087;DHT22;22893;50.572;7.234;2023-03-11T11:45:41;21.10;49.20
24087;DHT22;22893;50.572;7.234;2023-03-11T11:48:17;21.10;49.20
24087;DHT22;22893;50.572;7.234;2023-03-11T11:50:51;21.10;49.20
24087;DHT22;22893;50.572;7.234;2023-03-11T11:53:46;21.10;49.20
24087;DHT22;22893;50.572;7.234;2023-03-11T11:56:14;21.20;49.30
24087;DHT22;22893;50.572;7.234;2023-03-11T11:58:41;21.20;49.30
24087;DHT22;22893;50.572;7.234;2023-03-11T12:01:29;21.20;49.30
24087;DHT22;22893;50.572;7.234;2023-03-11T12:04:11;21.20;49.40
24087;DHT22;22893;50.572;7.234;2023-03-11T12:06:57;21.20;49.30
24087;DHT22;22893;50.572;7.234;2023-03-11T12:09:32;21.20;49.20
24087;DHT22;22893;50.572;7.234;2023-03-11T12:15:14;21.20;49.20
24087;DHT22;22893;50.572;7.234;2023-03-11T12:17:42;21.20;49.10
24087;DHT22;22893;50.572;7.234;2023-03-11T12:20:26;21.20;49.10
24087;DHT22;22893;50.572;7.234;2023-03-11T12:31:10;21.30;49.10
24087;DHT22;22893;50.572;7.234;2023-03-11T12:33:48;21.30;49.10
24087;DHT22;22893;50.572;7.234;2023-03-11T12:36:28;21.30;49.10
24087;DHT22;22893;50.572;7.234;2023-03-11T12:38:54;21.30;49.20
24087;DHT22;22893;50.572;7.234;2023-03-11T12:41:33;21.30;49.50
24087;DHT22;22893;50.572;7.234;2023-03-11T12:44:23;21.30;49.50
24087;DHT22;22893;50.572;7.234;2023-03-11T12:49:32;21.30;49.50
24087;DHT22;22893;50.572;7.234;2023-03-11T12:55:34;21.30;49.40
24087;DHT22;22893;50.572;7.234;2023-03-11T12:57:26;21.30;49.40
24087;DHT22;22893;50.572;7.234;2023-03-11T13:00:03;21.40;49.40
24087;DHT22;22893;50.572;7.234;2023-03-11T13:05:51;21.40;49.30
24087;DHT22;22893;50.572;7.234;2023-03-11T13:08:20;21.40;49.40
24087;DHT22;22893;50.572;7.234;2023-03-11T13:10:50;21.40;49.20
24087;DHT22;22893;50.572;7.234;2023-03-11T13:18:45;21.40;49.20
24087;DHT22;22893;50.572;7.234;2023-03-11T13:35:43;21.30;49.80
24087;DHT22;22893;50.572;7.234;2023-03-11T13:41:02;21.40;49.30
24087;DHT22;22893;50.572;7.234;2023-03-11T13:43:32;21.30;49.40
24087;DHT22;22893;50.572;7.234;2023-03-11T13:46:11;21.30;49.30
24087;DHT22;22893;50.572;7.234;2023-03-11T13:48:44;21.30;49.20
24087;DHT22;22893;50.572;7.234;2023-03-11T13:51:15;21.30;49.30
24087;DHT22;22893;50.572;7.234;2023-03-11T13:56:36;21.30;49.30
24087;DHT22;22893;50.572;7.234;2023-03-11T13:59:23;21.30;49.30
24087;DHT22;22893;50.572;7.234;2023-03-11T14:02:10;21.30;49.40
24087;DHT22;22893;50.572;7.234;2023-03-11T14:04:38;21.30;49.30
24087;DHT22;22893;50.572;7.234;2023-03-11T14:07:22;21.30;49.30
24087;DHT22;22893;50.572;7.234;2023-03-11T14:09:45;21.30;49.30
24087;DHT22;22893;50.572;7.234;2023-03-11T14:12:13;21.30;49.30
24087;DHT22;22893;50.572;7.234;2023-03-11T14:14:53;21.30;49.40
24087;DHT22;22893;50.572;7.234;2023-03-11T14:17:21;21.30;49.30
24087;DHT22;22893;50.572;7.234;2023-03-11T14:20:06;21.30;49.40
24087;DHT22;22893;50.572;7.234;2023-03-11T14:22:36;21.30;49.30
24087;DHT22;22893;50.572;7.234;2023-03-11T14:25:12;21.30;49.40
24087;DHT22;22893;50.572;7.234;2023-03-11T14:27:36;21.30;49.30
24087;DHT22;22893;50.572;7.234;2023-03-11T14:30:06;21.30;49.30
24087;DHT22;22893;50.572;7.234;2023-03-11T14:32:34;21.30;49.30
24087;DHT22;22893;50.572;7.234;2023-03-11T14:35:25;21.30;49.30
24087;DHT22;22893;50.572;7.234;2023-03-11T14:37:36;21.30;49.30
24087;DHT22;22893;50.572;7.234;2023-03-11T14:40:21;21.30;49.50
24087;DHT22;22893;50.572;7.234;2023-03-11T14:42:47;21.30;49.50
24087;DHT22;22893;50.572;7.234;2023-03-11T14:45:17;21.30;49.40
24087;DHT22;22893;50.572;7.234;2023-03-11T14:47:54;21.40;49.50
24087;DHT22;22893;50.572;7.234;2023-03-11T14:50:24;21.30;49.50
24087;DHT22;22893;50.572;7.234;2023-03-11T14:52:58;21.30;49.40
24087;DHT22;22893;50.572;7.234;2023-03-11T14:55:29;21.30;49.40
24087;DHT22;22893;50.572;7.234;2023-03-11T14:58:06;21.40;49.40
24087;DHT22;22893;50.572;7.234;2023-03-11T15:00:40;21.40;49.40
24087;DHT22;22893;50.572;7.234;2023-03-11T15:03:11;21.40;49.40
24087;DHT22;22893;50.572;7.234;2023-03-11T15:08:35;21.40;49.40
24087;DHT22;22893;50.572;7.234;2023-03-11T15:13:43;21.40;49.40
24087;DHT22;22893;50.572;7.234;2023-03-11T15:16:33;21.40;49.30
24087;DHT22;22893;50.572;7.234;2023-03-11T15:19:38;21.40;49.30
24087;DHT22;22893;50.572;7.234;2023-03-11T15:21:52;21.40;49.30
24087;DHT22;22893;50.572;7.234;2023-03-11T15:24:22;21.50;49.30
24087;DHT22;22893;50.572;7.234;2023-03-11T15:27:00;21.50;49.30
24087;DHT22;22893;50.572;7.234;2023-03-11T15:29:24;21.40;49.20
24087;DHT22;22893;50.572;7.234;2023-03-11T15:31:53;21.40;49.20
24087;DHT22;22893;50.572;7.234;2023-03-11T15:34:27;21.40;49.20
24087;DHT22;22893;50.572;7.234;2023-03-11T15:36:57;21.50;49.20
24087;DHT22;22893;50.572;7.234;2023-03-11T15:47:16;21.40;49.10
24087;DHT22;22893;50.572;7.234;2023-03-11T15:49:44;21.50;49.10
24087;DHT22;22893;50.572;7.234;2023-03-11T15:52:13;21.40;49.10
24087;DHT22;22893;50.572;7.234;2023-03-11T15:54:40;21.50;49.10
24087;DHT22;22893;50.572;7.234;2023-03-11T15:57:14;21.50;49.00
24087;DHT22;22893;50.572;7.234;2023-03-11T15:59:38;21.50;49.00
24087;DHT22;22893;50.572;7.234;2023-03-11T16:02:14;21.50;49.00
24087;DHT22;22893;50.572;7.234;2023-03-11T16:04:38;21.50;49.00
24087;DHT22;22893;50.572;7.234;2023-03-11T16:07:05;21.50;49.00
24087;DHT22;22893;50.572;7.234;2023-03-11T16:09:33;21.50;49.00
24087;DHT22;22893;50.572;7.234;2023-03-11T16:12:01;21.50;49.00
24087;DHT22;22893;50.572;7.234;2023-03-11T16:14:30;21.50;49.00
24087;DHT22;22893;50.572;7.234;2023-03-11T16:16:57;21.50;49.00
24087;DHT22;22893;50.572;7.234;2023-03-11T16:19:25;21.50;48.90
24087;DHT22;22893;50.572;7.234;2023-03-11T16:21:53;21.50;48.90
24087;DHT22;22893;50.572;7.234;2023-03-11T16:24:22;21.50;48.90
24087;DHT22;22893;50.572;7.234;2023-03-11T16:26:50;21.50;48.90
24087;DHT22;22893;50.572;7.234;2023-03-11T16:29:19;21.40;48.80
24087;DHT22;22893;50.572;7.234;2023-03-11T16:31:48;21.50;48.80
24087;DHT22;22893;50.572;7.234;2023-03-11T16:34:16;21.50;48.70
24087;DHT22;22893;50.572;7.234;2023-03-11T16:36:44;21.50;48.70
24087;DHT22;22893;50.572;7.234;2023-03-11T16:39:12;21.50;49.20
24087;DHT22;22893;50.572;7.234;2023-03-11T16:41:42;21.50;48.30
24087;DHT22;22893;50.572;7.234;2023-03-11T16:44:09;21.40;49.00
24087;DHT22;22893;50.572;7.234;2023-03-11T16:46:37;21.50;48.30
24087;DHT22;22893;50.572;7.234;2023-03-11T16:49:05;21.50;48.30
24087;DHT22;22893;50.572;7.234;2023-03-11T16:51:32;21.50;48.20
24087;DHT22;22893;50.572;7.234;2023-03-11T16:54:00;21.50;48.30
24087;DHT22;22893;50.572;7.234;2023-03-11T16:56:28;21.50;48.10
24087;DHT22;22893;50.572;7.234;2023-03-11T16:58:55;21.50;48.20
24087;DHT22;22893;50.572;7.234;2023-03-11T17:01:23;21.40;48.10
24087;DHT22;22893;50.572;7.234;2023-03-11T17:03:50;21.50;48.00
24087;DHT22;22893;50.572;7.234;2023-03-11T17:06:19;21.50;47.90
24087;DHT22;22893;50.572;7.234;2023-03-11T17:08:50;21.50;47.80
24087;DHT22;22893;50.572;7.234;2023-03-11T17:11:19;21.50;47.90
24087;DHT22;22893;50.572;7.234;2023-03-11T17:13:47;21.40;47.80
24087;DHT22;22893;50.572;7.234;2023-03-11T17:16:16;21.50;47.70
24087;DHT22;22893;50.572;7.234;2023-03-11T17:18:43;21.40;47.70
24087;DHT22;22893;50.572;7.234;2023-03-11T17:21:13;21.40;47.70